Time;durP1;ratioP1;P1;durP2;ratioP2;P2;SDS_P1;SDS_P2;PMS_P1;PMS_P2;Temp;Humidity;BMP_temperature;BMP_pressure;BME280_temperature;BME280_humidity;BME280_pressure;Samples;Min_cycle;Max_cycle;Signal;HPM_P1;HPM_P2
2022/07/19 00:00:46;;;;;;;5.85;2.83;;;;;;;21.70;49.78;100208.09;5046191;28;20078;-77
2022/07/19 00:03:13;;;;;;;10.13;3.17;;;;;;;21.58;49.05;100208.78;5047079;28;20033;-79
2022/07/19 00:05:38;;;;;;;6.07;3.05;;;;;;;21.67;49.20;100211.53;5048012;28;20033;-77
2022/07/19 00:08:03;;;;;;;9.57;3.73;;;;;;;21.51;50.53;100203.72;5047699;28;20055;-75
2022/07/19 00:10:29;;;;;;;7.47;3.42;;;;;;;21.38;50.59;100210.28;5046866;28;20167;-75
2022/07/19 00:12:54;;;;;;;5.43;2.73;;;;;;;21.29;50.67;100205.56;5046200;28;20062;-74
2022/07/19 00:15:19;;;;;;;8.63;3.70;;;;;;;21.34;51.45;100199.84;5046682;28;20270;-74
2022/07/19 00:17:47;;;;;;;7.30;3.70;;;;;;;21.20;51.90;100196.41;5047179;28;20037;-76
2022/07/19 00:20:16;;;;;;;11.73;4.43;;;;;;;21.09;53.06;100191.19;5046855;28;20032;-76
2022/07/19 00:22:42;;;;;;;7.50;4.20;;;;;;;21.15;52.33;100196.59;5050562;28;20025;-82
2022/07/19 00:25:08;;;;;;;5.40;3.42;;;;;;;21.03;52.96;100195.25;5052797;28;20029;-83
2022/07/19 00:27:34;;;;;;;7.10;4.20;;;;;;;20.86;53.91;100191.34;5053141;28;20488;-89
2022/07/19 00:30:00;;;;;;;6.22;3.58;;;;;;;20.85;53.15;100186.91;5052516;28;20068;-89
2022/07/19 00:32:25;;;;;;;9.57;3.97;;;;;;;20.88;53.25;100188.25;5050086;28;20032;-74
2022/07/19 00:34:51;;;;;;;4.88;3.00;;;;;;;20.95;53.20;100188.56;5046408;28;20036;-74
2022/07/19 00:37:16;;;;;;;9.48;3.83;;;;;;;21.07;52.87;100176.06;5046435;28;20481;-74
2022/07/19 00:39:41;;;;;;;9.20;3.50;;;;;;;21.08;52.83;100178.50;5046864;28;20067;-74
2022/07/19 00:42:06;;;;;;;5.82;3.17;;;;;;;21.08;53.27;100174.91;5045982;28;20114;-76
2022/07/19 00:44:32;;;;;;;10.73;4.07;;;;;;;21.08;53.01;100170.19;5045659;28;20045;-76
2022/07/19 00:46:58;;;;;;;7.20;3.63;;;;;;;20.91;53.34;100186.78;5047130;28;20487;-74
2022/07/19 00:49:23;;;;;;;7.40;3.10;;;;;;;21.02;52.71;100177.03;5045614;28;20040;-74
2022/07/19 00:51:54;;;;;;;8.55;3.28;;;;;;;21.04;52.45;100174.75;5047620;28;20036;-83
2022/07/19 00:54:20;;;;;;;7.68;3.40;;;;;;;20.98;52.71;100174.09;5052363;28;20116;-82
2022/07/19 00:56:49;;;;;;;12.10;3.83;;;;;;;21.01;52.56;100175.41;5049468;28;20041;-85
2022/07/19 00:59:15;;;;;;;8.27;3.05;;;;;;;20.95;51.59;100174.69;5052090;28;20478;-85
2022/07/19 01:01:40;;;;;;;5.72;2.90;;;;;;;21.07;52.03;100174.06;5050056;28;20037;-77
2022/07/19 01:04:06;;;;;;;5.47;2.88;;;;;;;21.05;51.68;100170.03;5046423;28;20036;-77
2022/07/19 01:06:31;;;;;;;6.75;3.30;;;;;;;20.98;52.55;100173.28;5046678;28;20056;-76
2022/07/19 01:08:57;;;;;;;6.85;3.15;;;;;;;;;;5046653;28;20033;-77
2022/07/19 01:11:22;;;;;;;13.75;3.60;;;;;;;21.25;51.54;100184.34;5046682;28;20590;-77
2022/07/19 01:13:48;;;;;;;6.90;3.50;;;;;;;21.19;51.98;100186.47;5046595;28;20075;-77
2022/07/19 01:16:14;;;;;;;5.95;3.15;;;;;;;21.13;51.87;100173.94;5048159;28;20634;-80
2022/07/19 01:18:40;;;;;;;8.63;3.63;;;;;;;21.07;51.99;100174.06;5049754;28;20153;-80
2022/07/19 01:21:07;;;;;;;8.13;3.05;;;;;;;20.96;50.68;100169.97;5050419;28;20041;-84
2022/07/19 01:23:32;;;;;;;6.35;2.60;;;;;;;20.93;50.71;100178.97;5052075;28;20375;-84
2022/07/19 01:25:58;;;;;;;4.68;2.35;;;;;;;21.02;50.87;100182.56;5047958;28;20059;-89
2022/07/19 01:28:23;;;;;;;4.90;2.57;;;;;;;21.18;48.72;100169.03;5051081;28;20049;-90
2022/07/19 01:30:50;;;;;;;5.87;2.47;;;;;;;21.43;48.52;100168.50;5056202;28;20337;-75
2022/07/19 01:33:16;;;;;;;7.45;2.72;;;;;;;21.46;48.44;100174.19;5045293;28;20258;-74
2022/07/19 01:35:41;;;;;;;7.40;2.67;;;;;;;21.41;49.16;100170.78;5045667;28;20033;-77
2022/07/19 01:38:06;;;;;;;3.72;2.08;;;;;;;21.32;49.95;100174.38;5046159;28;20499;-76
2022/07/19 01:40:33;;;;;;;4.40;2.40;;;;;;;21.38;49.38;100174.22;5045555;28;20689;-76
2022/07/19 01:42:59;;;;;;;6.32;3.58;;;;;;;21.48;48.20;100181.41;5045886;28;20869;-80
2022/07/19 01:45:24;;;;;;;4.97;2.67;;;;;;;21.39;48.66;100175.84;5032672;28;20048;-74
2022/07/19 01:47:49;;;;;;;5.07;2.63;;;;;;;21.58;47.18;100167.97;5045204;28;20403;-74
2022/07/19 01:50:16;;;;;;;6.53;3.15;;;;;;;21.54;48.53;100164.22;5044790;28;20265;-74
2022/07/19 01:52:42;;;;;;;4.05;2.30;;;;;;;21.52;47.98;100172.06;5045088;28;20041;-74
2022/07/19 01:55:07;;;;;;;6.47;2.60;;;;;;;21.46;49.00;100173.38;5045249;28;20150;-74
2022/07/19 01:57:33;;;;;;;5.60;2.90;;;;;;;21.33;49.22;100169.66;5045369;28;20025;-74
2022/07/19 01:59:58;;;;;;;4.83;2.53;;;;;;;21.43;49.09;100171.28;5044265;28;20029;-74
2022/07/19 02:02:23;;;;;;;7.53;2.17;;;;;;;21.51;49.01;100170.44;5045227;28;20797;-74
2022/07/19 02:04:49;;;;;;;5.50;3.25;;;;;;;21.32;49.43;100166.06;5045134;28;20460;-74
2022/07/19 02:07:14;;;;;;;6.13;3.43;;;;;;;21.15;50.35;100168.88;5050044;28;20465;-84
2022/07/19 02:09:39;;;;;;;4.88;2.22;;;;;;;20.87;51.09;100167.19;5051978;28;20044;-83
2022/07/19 02:12:05;;;;;;;5.47;3.03;;;;;;;20.86;51.52;100162.81;5051436;28;20029;-84
2022/07/19 02:14:30;;;;;;;5.85;3.55;;;;;;;20.83;51.22;100155.13;5050716;28;20036;-84
2022/07/19 02:16:56;;;;;;;5.78;2.45;;;;;;;21.01;49.54;100156.00;5048344;28;20040;-77
2022/07/19 02:19:21;;;;;;;5.50;2.17;;;;;;;20.98;49.76;100156.66;5045319;28;20044;-77
2022/07/19 02:21:46;;;;;;;5.82;2.95;;;;;;;21.03;49.00;100159.25;5046158;28;20032;-76
2022/07/19 02:24:12;;;;;;;6.10;2.72;;;;;;;21.15;47.76;100160.56;5045620;28;20036;-76
2022/07/19 02:26:37;;;;;;;6.57;2.63;;;;;;;21.21;48.19;100156.47;5046488;28;20033;-74
2022/07/19 02:29:02;;;;;;;4.70;2.07;;;;;;;21.22;47.84;100145.06;5043777;28;20306;-73
2022/07/19 02:31:28;;;;;;;6.72;2.35;;;;;;;21.16;48.88;100153.84;5044848;28;20254;-77
2022/07/19 02:33:53;;;;;;;3.67;2.20;;;;;;;21.10;49.31;100154.03;5045121;28;20128;-77
2022/07/19 02:36:18;;;;;;;8.60;2.37;;;;;;;20.94;48.98;100150.09;5046111;28;20320;-77
2022/07/19 02:38:44;;;;;;;3.97;2.17;;;;;;;20.89;49.26;100153.84;5045720;28;20617;-77
2022/07/19 02:41:11;;;;;;;6.53;2.00;;;;;;;20.94;49.17;100152.88;5047369;28;20044;-83
2022/07/19 02:43:36;;;;;;;4.65;2.22;;;;;;;20.87;49.73;100145.84;5050880;28;20039;-82
2022/07/19 02:46:02;;;;;;;6.50;2.17;;;;;;;20.71;50.07;100155.78;5050646;28;20040;-80
2022/07/19 02:48:27;;;;;;;5.75;2.70;;;;;;;20.55;50.38;100153.50;5048767;28;20037;-80
2022/07/19 02:50:53;;;;;;;3.72;2.08;;;;;;;20.68;50.15;100161.97;5048187;28;20072;-73
2022/07/19 02:53:18;;;;;;;5.55;2.47;;;;;;;20.50;50.07;100150.88;5048535;28;20037;-74
2022/07/19 02:55:43;;;;;;;4.47;2.83;;;;;;;20.38;51.04;100148.75;5049127;28;20029;-76
2022/07/19 02:58:09;;;;;;;5.05;2.20;;;;;;;20.29;50.27;100157.03;5048799;28;20261;-80
2022/07/19 03:00:34;;;;;;;6.45;2.20;;;;;;;20.30;50.67;100147.56;5048377;28;20040;-76
2022/07/19 03:03:43;;;;;;;7.18;2.15;;;;;;;20.33;50.64;100146.94;5048744;28;20025;-76
2022/07/19 03:05:46;;;;;;;7.50;2.38;;;;;;;20.35;50.39;100144.66;5048969;28;20029;-76
2022/07/19 03:08:11;;;;;;;5.47;2.40;;;;;;;20.41;50.11;100143.38;5048690;28;20056;-76
2022/07/19 03:10:37;;;;;;;4.32;2.38;;;;;;;20.57;50.05;100136.53;5052909;28;20053;-84
2022/07/19 03:13:02;;;;;;;7.60;3.35;;;;;;;20.59;50.06;100143.41;5054265;28;20029;-85
2022/07/19 03:15:28;;;;;;;5.85;2.38;;;;;;;20.66;49.29;100142.94;5050520;28;20660;-77
2022/07/19 03:17:53;;;;;;;5.38;2.13;;;;;;;20.61;49.82;100143.88;5048837;28;20033;-76
2022/07/19 03:20:18;;;;;;;3.37;2.07;;;;;;;20.56;50.29;100138.53;5047588;28;20033;-75
2022/07/19 03:22:43;;;;;;;5.53;3.10;;;;;;;20.68;49.85;100143.41;5047939;28;20258;-75
2022/07/19 03:25:09;;;;;;;7.30;3.50;;;;;;;20.69;49.56;100138.66;5048143;28;20331;-75
2022/07/19 03:27:35;;;;;;;4.45;2.50;;;;;;;20.59;50.86;100143.41;5046118;28;20315;-75
2022/07/19 03:30:00;;;;;;;7.78;2.22;;;;;;;20.54;50.63;100138.03;5050591;28;20111;-89
2022/07/19 03:32:26;;;;;;;6.07;2.28;;;;;;;20.62;50.16;100136.41;5054522;28;20029;-88
2022/07/19 03:34:51;;;;;;;3.58;1.90;;;;;;;20.73;48.77;100137.72;5051968;28;20024;-76
2022/07/19 03:37:16;;;;;;;4.30;2.37;;;;;;;20.71;49.74;100141.94;5048103;28;20060;-76
2022/07/19 03:39:41;;;;;;;6.40;2.33;;;;;;;20.54;50.15;100143.56;5048443;28;20262;-77
2022/07/19 03:42:07;;;;;;;7.33;2.53;;;;;;;20.53;50.27;100139.97;5048304;28;20048;-77
2022/07/19 03:44:32;;;;;;;8.47;2.77;;;;;;;20.60;49.66;100145.03;5049737;28;20320;-83
2022/07/19 03:46:58;;;;;;;7.53;2.88;;;;;;;20.48;50.45;100144.84;5053764;28;20037;-82
2022/07/19 03:49:23;;;;;;;4.90;2.10;;;;;;;20.43;50.53;100145.81;5052094;28;20090;-77
2022/07/19 03:51:48;;;;;;;7.10;2.97;;;;;;;20.52;49.89;100148.59;5048374;28;20270;-77
2022/07/19 03:54:13;;;;;;;7.17;2.87;;;;;;;20.56;49.79;100146.81;5049278;28;20320;-89
2022/07/19 03:56:39;;;;;;;13.03;3.67;;;;;;;20.56;49.40;100144.06;5053857;28;20290;-88
2022/07/19 03:59:04;;;;;;;6.83;3.27;;;;;;;20.60;49.93;100144.22;5052409;28;20622;-74
2022/07/19 04:01:30;;;;;;;4.97;2.58;;;;;;;20.62;49.21;100147.47;5046944;28;20268;-74
2022/07/19 04:03:55;;;;;;;5.32;2.10;;;;;;;20.55;50.73;100153.50;5046708;28;20116;-75
2022/07/19 04:06:20;;;;;;;7.82;2.65;;;;;;;20.39;51.40;100148.41;5046404;28;20116;-74
2022/07/19 04:08:45;;;;;;;5.40;2.23;;;;;;;20.40;50.98;100150.03;5046703;28;20036;-76
2022/07/19 04:11:11;;;;;;;3.88;2.20;;;;;;;20.39;51.44;100151.19;5048160;28;20138;-75
2022/07/19 04:13:36;;;;;;;6.33;2.67;;;;;;;20.45;51.15;100148.25;5047552;28;20025;-76
2022/07/19 04:16:02;;;;;;;5.70;2.93;;;;;;;20.56;49.83;100146.81;5046906;28;20049;-74
2022/07/19 04:18:27;;;;;;;4.43;2.40;;;;;;;20.67;50.69;100150.09;5046781;28;20270;-74
2022/07/19 04:20:52;;;;;;;4.40;2.80;;;;;;;20.72;50.46;100152.72;5046914;28;20048;-77
2022/07/19 04:23:18;;;;;;;3.67;2.47;;;;;;;20.54;51.37;100151.88;5047431;28;20036;-77
2022/07/19 04:25:43;;;;;;;7.00;3.00;;;;;;;20.64;50.43;100150.75;5050504;28;20036;-81
2022/07/19 04:28:08;;;;;;;6.57;2.57;;;;;;;20.71;50.62;100145.53;5050654;28;20282;-80
2022/07/19 04:30:33;;;;;;;5.83;2.67;;;;;;;20.65;52.01;100150.41;5052405;28;20270;-89
2022/07/19 04:32:59;;;;;;;4.90;2.67;;;;;;;20.65;52.34;100147.66;5052994;28;20254;-89
2022/07/19 04:35:24;;;;;;;5.20;2.40;;;;;;;20.72;51.65;100151.88;5048841;28;20070;-74
2022/07/19 04:37:49;;;;;;;12.47;3.37;;;;;;;20.84;50.65;100149.28;5046044;28;20262;-74
2022/07/19 04:40:14;;;;;;;8.20;3.00;;;;;;;20.86;50.76;100149.78;5048481;28;20301;-80
2022/07/19 04:42:40;;;;;;;6.87;2.53;;;;;;;20.88;51.16;100147.50;5050727;28;20258;-80
2022/07/19 04:45:06;;;;;;;11.25;2.92;;;;;;;21.05;50.42;100145.88;5048492;28;20281;-76
2022/07/19 04:47:31;;;;;;;10.93;2.95;;;;;;;21.10;48.86;100145.72;5046572;28;20033;-75
2022/07/19 04:49:56;;;;;;;5.80;2.63;;;;;;;21.21;49.65;100151.72;5046378;28;20040;-76
2022/07/19 04:52:22;;;;;;;5.38;2.60;;;;;;;21.28;49.72;100156.78;5046595;28;20540;-76
2022/07/19 04:54:47;;;;;;;9.20;3.27;;;;;;;21.36;49.26;100148.78;5046616;28;20436;-74
2022/07/19 04:57:13;;;;;;;9.02;3.42;;;;;;;21.42;49.05;100156.59;5045963;28;20028;-74
2022/07/19 04:59:39;;;;;;;3.83;2.38;;;;;;;21.48;48.79;100143.38;5047963;28;20029;-84
2022/07/19 05:02:04;;;;;;;5.47;2.08;;;;;;;21.63;48.36;100149.53;5052610;28;20025;-84
2022/07/19 05:04:29;;;;;;;8.27;2.60;;;;;;;21.69;48.43;100146.25;5050776;28;20028;-78
2022/07/19 05:06:56;;;;;;;6.45;2.95;;;;;;;21.73;47.88;100137.25;5047034;28;20774;-77
2022/07/19 05:09:26;;;;;;;3.92;2.53;;;;;;;21.75;48.85;100140.50;5046027;28;20029;-75
2022/07/19 05:11:53;;;;;;;7.47;3.38;;;;;;;21.81;47.06;100133.63;5045415;28;20036;-74
2022/07/19 05:14:19;;;;;;;7.53;2.58;;;;;;;21.84;48.64;100132.19;5047020;28;20029;-83
2022/07/19 05:16:45;;;;;;;6.78;3.13;;;;;;;21.93;47.99;100133.78;5052118;28;20079;-83
2022/07/19 05:19:11;;;;;;;5.75;3.05;;;;;;;21.91;48.51;100135.25;5052064;28;20028;-83
2022/07/19 05:21:36;;;;;;;11.18;3.45;;;;;;;21.94;48.49;100134.59;5052126;28;20032;-83
2022/07/19 05:24:02;;;;;;;7.20;2.72;;;;;;;22.01;47.64;100134.88;5051339;28;20032;-77
2022/07/19 05:26:27;;;;;;;7.22;2.80;;;;;;;22.02;48.30;100133.75;5046144;28;20029;-77
2022/07/19 05:28:53;;;;;;;4.85;2.72;;;;;;;21.95;48.50;100138.19;5046185;28;20080;-84
2022/07/19 05:31:18;;;;;;;4.97;2.60;;;;;;;22.00;49.46;100130.50;5051365;28;20068;-85
2022/07/19 05:33:43;;;;;;;7.03;2.53;;;;;;;22.01;49.12;100132.09;5051701;28;20078;-84
2022/07/19 05:36:10;;;;;;;9.63;3.07;;;;;;;22.13;48.65;100133.38;5050791;28;20683;-85
2022/07/19 05:38:38;;;;;;;12.02;3.15;;;;;;;22.18;48.37;100130.38;5050528;28;20029;-85
2022/07/19 05:41:03;;;;;;;6.10;2.67;;;;;;;22.25;47.74;100125.09;5046759;28;20542;-78
2022/07/19 05:43:29;;;;;;;5.40;2.20;;;;;;;22.26;48.64;100121.19;5045412;28;20029;-77
2022/07/19 05:45:54;;;;;;;6.03;2.05;;;;;;;22.30;48.04;100126.88;5049159;28;20040;-80
2022/07/19 05:48:19;;;;;;;6.47;3.13;;;;;;;22.39;47.42;100135.19;5049802;28;20443;-80
2022/07/19 05:50:44;;;;;;;10.17;2.97;;;;;;;22.51;47.97;100131.66;5049237;28;20286;-80
2022/07/19 05:53:10;;;;;;;4.33;2.30;;;;;;;22.58;47.47;100136.66;5048950;28;20087;-80
2022/07/19 05:55:35;;;;;;;7.67;2.80;;;;;;;22.57;46.02;100130.31;5046718;28;20790;-76
2022/07/19 05:58:00;;;;;;;10.97;3.20;;;;;;;22.63;46.13;100134.53;5045638;28;20060;-76
2022/07/19 06:00:25;;;;;;;5.23;3.00;;;;;;;22.66;45.63;100130.25;5047473;28;20270;-80
2022/07/19 06:02:51;;;;;;;5.43;2.67;;;;;;;22.72;45.60;100130.91;5048997;28;20266;-81
2022/07/19 06:05:16;;;;;;;4.97;2.20;;;;;;;22.77;46.18;100129.84;5050773;28;20282;-89
2022/07/19 06:07:41;;;;;;;7.60;2.70;;;;;;;22.85;48.10;100126.19;5051981;28;20036;-89
2022/07/19 06:10:07;;;;;;;7.60;3.40;;;;;;;22.89;48.07;100129.91;5048440;28;20273;-77
2022/07/19 06:12:32;;;;;;;10.27;3.72;;;;;;;22.90;48.94;100137.13;5045697;28;21043;-77
2022/07/19 06:14:57;;;;;;;5.70;2.87;;;;;;;22.91;47.80;100138.72;5045484;28;20171;-77
2022/07/19 06:17:23;;;;;;;11.23;3.97;;;;;;;22.95;47.61;100134.13;5043388;28;20029;-77
2022/07/19 06:19:48;;;;;;;10.57;3.57;;;;;;;22.92;50.22;100140.38;5049248;28;20294;-84
2022/07/19 06:22:13;;;;;;;6.23;3.80;;;;;;;22.93;48.49;100139.19;5054295;28;20262;-84
2022/07/19 06:24:39;;;;;;;14.77;3.35;;;;;;;22.97;49.17;100145.72;5052218;28;20472;-75
2022/07/19 06:27:04;;;;;;;10.07;3.42;;;;;;;23.00;49.19;100135.88;5048814;28;20041;-75
2022/07/19 06:29:29;;;;;;;8.17;3.50;;;;;;;23.02;48.88;100132.75;5049749;28;20048;-81
2022/07/19 06:31:54;;;;;;;11.83;3.70;;;;;;;23.02;49.89;100138.31;5052727;28;20100;-80
2022/07/19 06:34:20;;;;;;;5.17;2.90;;;;;;;23.04;48.92;100147.13;5049183;28;20609;-74
2022/07/19 06:36:45;;;;;;;6.63;2.80;;;;;;;23.07;48.57;100135.31;5048090;28;20041;-75
2022/07/19 06:39:10;;;;;;;8.90;3.40;;;;;;;23.08;48.30;100148.06;5046951;28;20039;-77
2022/07/19 06:41:35;;;;;;;11.95;3.00;;;;;;;23.11;47.93;100141.81;5048138;28;20021;-76
2022/07/19 06:44:01;;;;;;;6.83;3.73;;;;;;;23.16;48.36;100138.84;5048660;28;20033;-89
2022/07/19 06:46:26;;;;;;;9.10;3.00;;;;;;;23.24;48.16;100136.31;5052093;28;20304;-89
2022/07/19 06:48:51;;;;;;;8.27;2.90;;;;;;;23.26;49.70;100137.59;5054135;28;20029;-89
2022/07/19 06:51:16;;;;;;;8.43;3.47;;;;;;;23.29;49.75;100141.66;5062639;28;20246;-89
2022/07/19 06:53:42;;;;;;;7.13;3.50;;;;;;;23.31;48.91;100140.16;5062857;28;20037;-88
2022/07/19 06:56:07;;;;;;;6.27;3.27;;;;;;;23.38;48.33;100144.34;5062083;28;20033;-88
2022/07/19 06:58:32;;;;;;;6.63;2.97;;;;;;;23.42;47.91;100136.94;5055124;28;20331;-89
2022/07/19 07:00:58;;;;;;;6.03;2.85;;;;;;;23.52;45.22;100141.28;5048683;28;20124;-76
2022/07/19 07:03:23;;;;;;;8.10;3.20;;;;;;;23.64;42.83;100138.53;5048005;28;20440;-76
2022/07/19 07:05:49;;;;;;;9.13;3.15;;;;;;;23.83;43.23;100142.72;5051558;28;20067;-80
2022/07/19 07:08:14;;;;;;;7.72;2.80;;;;;;;23.91;41.85;100135.41;5052225;28;20040;-80
2022/07/19 07:10:39;;;;;;;7.90;2.80;;;;;;;24.06;41.25;100133.94;5054796;28;20075;-88
2022/07/19 07:13:05;;;;;;;5.55;2.95;;;;;;;24.28;40.83;100131.03;5055101;28;20066;-89
2022/07/19 07:15:31;;;;;;;6.40;3.42;;;;;;;24.37;40.61;100138.09;5054423;28;20029;-84
2022/07/19 07:17:57;;;;;;;5.10;2.72;;;;;;;24.44;40.49;100136.69;5054604;28;20029;-84
2022/07/19 07:20:22;;;;;;;7.15;2.75;;;;;;;24.49;40.31;100139.22;5054038;28;20036;-85
2022/07/19 07:22:47;;;;;;;5.75;2.60;;;;;;;24.83;38.98;100137.06;5054302;28;20025;-84
2022/07/19 07:25:13;;;;;;;7.40;4.03;;;;;;;24.83;38.99;100148.22;5054555;28;20036;-88
2022/07/19 07:27:38;;;;;;;16.92;3.83;;;;;;;25.28;37.75;100139.91;5053916;28;20029;-87
2022/07/19 07:30:04;;;;;;;7.70;3.25;;;;;;;25.32;37.70;100140.03;5053438;28;20041;-85
2022/07/19 07:32:29;;;;;;;5.97;2.38;;;;;;;25.29;38.27;100135.97;5052695;28;20037;-84
2022/07/19 07:34:55;;;;;;;6.40;3.20;;;;;;;25.30;38.20;100137.56;5053700;28;20113;-85
2022/07/19 07:37:20;;;;;;;9.85;3.38;;;;;;;25.33;38.19;100143.59;5053793;28;20095;-85
2022/07/19 07:39:45;;;;;;;5.43;2.87;;;;;;;25.36;37.78;100142.91;5051614;28;20035;-76
2022/07/19 07:42:10;;;;;;;8.93;3.20;;;;;;;25.51;38.06;100136.53;5047530;28;20572;-76
2022/07/19 07:44:36;;;;;;;5.67;3.20;;;;;;;25.49;37.95;100144.44;5048889;28;20035;-81
2022/07/19 07:47:01;;;;;;;8.68;4.00;;;;;;;25.82;37.27;100144.50;5051453;28;20652;-81
2022/07/19 07:49:27;;;;;;;5.80;2.75;;;;;;;25.90;36.46;100140.72;5049495;28;20036;-75
2022/07/19 07:51:52;;;;;;;12.68;4.13;;;;;;;25.88;36.50;100141.06;5046745;28;20025;-75
2022/07/19 07:54:18;;;;;;;7.82;2.92;;;;;;;26.13;36.40;100144.84;5048507;28;20028;-86
2022/07/19 07:56:43;;;;;;;5.68;2.92;;;;;;;26.09;36.12;100130.78;5053107;28;20056;-86
2022/07/19 07:59:09;;;;;;;7.68;3.20;;;;;;;26.30;35.59;100140.84;5052723;28;20033;-84
2022/07/19 08:01:34;;;;;;;8.48;2.75;;;;;;;26.31;35.85;100136.88;5053753;28;20039;-85
2022/07/19 08:04:00;;;;;;;7.65;3.00;;;;;;;26.28;34.73;100132.81;5052850;28;20071;-75
2022/07/19 08:06:25;;;;;;;5.28;2.72;;;;;;;26.47;34.65;100134.06;5046601;28;20078;-74
2022/07/19 08:08:51;;;;;;;11.20;2.50;;;;;;;26.48;34.13;100130.09;5047097;28;20044;-74
2022/07/19 08:11:16;;;;;;;7.43;2.78;;;;;;;26.54;34.93;100127.81;5045964;28;20270;-74
2022/07/19 08:13:41;;;;;;;9.27;3.00;;;;;;;26.43;34.92;100120.00;5046037;28;20116;-75
2022/07/19 08:16:07;;;;;;;11.25;2.38;;;;;;;26.49;33.82;100123.31;5047028;28;20265;-75
2022/07/19 08:18:33;;;;;;;9.95;2.55;;;;;;;26.54;34.34;100125.03;5046209;28;20035;-74
2022/07/19 08:20:58;;;;;;;10.63;2.88;;;;;;;26.61;34.28;100122.38;5051759;28;20033;-87
2022/07/19 08:23:23;;;;;;;8.73;2.67;;;;;;;26.79;33.82;100122.75;5053251;28;20021;-87
2022/07/19 08:25:48;;;;;;;5.20;2.43;;;;;;;26.89;33.48;100121.34;5048195;28;20033;-77
2022/07/19 08:28:14;;;;;;;14.87;3.40;;;;;;;26.97;31.93;100127.09;5046711;28;20394;-77
2022/07/19 08:30:39;;;;;;;3.07;1.93;;;;;;;27.06;32.56;100119.28;5050811;28;20305;-87
2022/07/19 08:33:08;;;;;;;8.33;3.10;;;;;;;27.25;30.53;100109.28;5052468;28;20480;-87
2022/07/19 08:35:33;;;;;;;4.57;2.22;;;;;;;27.24;31.84;100116.84;5052509;28;20029;-87
2022/07/19 08:37:58;;;;;;;4.53;2.38;;;;;;;27.23;32.16;100117.22;5052291;28;20107;-86
2022/07/19 08:40:24;;;;;;;4.90;2.03;;;;;;;27.36;31.09;100115.06;5051822;28;20037;-87
2022/07/19 08:42:50;;;;;;;7.93;2.70;;;;;;;27.57;29.78;100116.63;5052493;28;20029;-87
2022/07/19 08:45:15;;;;;;;5.38;2.85;;;;;;;27.76;30.37;100109.38;5046815;28;20293;-75
2022/07/19 08:47:42;;;;;;;7.80;1.97;;;;;;;27.93;29.59;100108.03;5045237;28;20029;-75
2022/07/19 08:50:11;;;;;;;5.22;2.42;;;;;;;27.95;30.69;100111.25;5048138;28;20130;-84
2022/07/19 08:52:37;;;;;;;6.57;2.85;;;;;;;27.96;29.74;100104.47;5052726;28;20029;-84
2022/07/19 08:55:03;;;;;;;5.53;2.67;;;;;;;28.12;29.81;100098.72;5050517;28;20123;-77
2022/07/19 09:00:13;;;;;;;3.13;1.77;;;;;;;28.52;30.35;100104.06;5049484;28;20047;-88
2022/07/19 09:02:39;;;;;;;6.50;2.13;;;;;;;28.53;30.09;100111.31;5052647;28;20112;-89
2022/07/19 09:05:10;;;;;;;3.80;2.20;;;;;;;28.72;30.13;100104.72;5053217;28;20104;-88
2022/07/19 09:07:37;;;;;;;5.75;2.33;;;;;;;28.79;29.92;100101.22;5052463;28;20032;-89
2022/07/19 09:10:18;;;;;;;7.10;2.53;;;;;;;28.88;29.79;100109.34;5048391;28;20896;-74
2022/07/19 09:13:02;;;;;;;6.28;2.22;;;;;;;28.85;29.07;100104.47;5045381;28;20060;-74
2022/07/19 09:15:40;;;;;;;8.20;2.05;;;;;;;28.91;30.17;100105.75;5051617;28;20033;-85
2022/07/19 09:18:25;;;;;;;4.68;2.00;;;;;;;29.17;28.54;100098.44;5072148;28;20032;-84
2022/07/19 09:20:53;;;;;;;18.85;2.55;;;;;;;29.45;28.06;100101.91;5054201;28;20037;-89
2022/07/19 09:23:19;;;;;;;4.15;2.25;;;;;;;29.64;28.64;100098.06;5047460;28;20554;-88
2022/07/19 09:25:56;;;;;;;6.13;2.88;;;;;;;29.55;28.55;100092.78;5047000;28;20024;-75
2022/07/19 09:28:23;;;;;;;5.50;2.47;;;;;;;29.62;28.92;100094.81;5044531;28;20045;-75
2022/07/19 09:30:52;;;;;;;9.73;2.67;;;;;;;29.89;28.12;100091.88;5044335;28;20032;-79
2022/07/19 09:33:21;;;;;;;7.53;3.55;;;;;;;30.02;27.36;100094.34;5046211;28;20182;-79
2022/07/19 09:35:58;;;;;;;7.95;2.72;;;;;;;30.07;27.32;100085.56;5045828;28;20396;-75
2022/07/19 09:38:30;;;;;;;8.10;2.22;;;;;;;30.22;26.90;100089.25;5045581;28;20037;-75
2022/07/19 09:41:08;;;;;;;3.83;1.92;;;;;;;30.48;26.44;100089.41;5044787;28;20040;-76
2022/07/19 09:44:03;;;;;;;6.90;2.63;;;;;;;30.70;26.86;100087.47;5045152;28;20033;-75
2022/07/19 09:46:37;;;;;;;6.85;2.25;;;;;;;30.79;25.57;100075.88;5051045;28;20618;-81
2022/07/19 09:49:12;;;;;;;3.63;2.10;;;;;;;30.95;25.52;100083.16;5049638;28;20539;-78
2022/07/19 09:51:40;;;;;;;4.55;2.42;;;;;;;31.05;26.54;100075.94;5045269;28;20048;-77
2022/07/19 09:54:07;;;;;;;4.97;2.80;;;;;;;31.08;24.91;100077.97;5046336;28;20021;-79
2022/07/19 09:56:33;;;;;;;4.93;2.63;;;;;;;31.13;24.52;100073.94;5046585;28;20864;-79
2022/07/19 09:58:59;;;;;;;3.72;2.08;;;;;;;31.11;25.87;100071.53;5048475;28;20029;-76
2022/07/19 10:01:25;;;;;;;4.07;2.15;;;;;;;31.10;24.94;100073.53;5047761;28;20115;-76
2022/07/19 10:03:58;;;;;;;5.93;2.10;;;;;;;31.26;25.43;100072.38;5047910;28;20044;-89
2022/07/19 10:06:25;;;;;;;;;;;;;;;31.37;24.19;100075.19;5056563;28;20033;-88
2022/07/19 10:08:50;;;;;;;2.95;1.83;;;;;;;31.62;25.30;100076.41;5053878;28;20380;-76
2022/07/19 10:11:16;;;;;;;7.00;1.90;;;;;;;31.67;25.01;100071.16;5048897;28;20039;-75
2022/07/19 10:13:41;;;;;;;8.35;2.00;;;;;;;31.64;24.58;100063.53;5048505;28;20537;-75
2022/07/19 10:16:13;;;;;;;6.15;2.40;;;;;;;31.71;24.08;100067.56;5048698;28;20079;-75
2022/07/19 10:18:51;;;;;;;5.40;2.03;;;;;;;31.88;23.82;100065.91;5048384;28;20511;-75
2022/07/19 10:21:17;;;;;;;15.13;2.88;;;;;;;32.07;24.13;100061.88;5046474;28;20145;-75
2022/07/19 10:23:51;;;;;;;6.80;2.25;;;;;;;32.22;23.90;100056.22;5048299;28;20799;-75
2022/07/19 10:26:40;;;;;;;2.65;1.58;;;;;;;32.22;23.58;100048.53;5048564;28;20052;-75
2022/07/19 10:29:15;;;;;;;3.85;1.77;;;;;;;32.24;22.41;100043.28;5047322;28;20113;-79
2022/07/19 10:31:41;;;;;;;4.13;2.05;;;;;;;32.36;22.73;100038.44;5048443;28;20078;-78
2022/07/19 10:34:10;;;;;;;6.30;2.53;;;;;;;32.41;22.87;100034.38;5048907;28;20033;-84
2022/07/19 10:36:39;;;;;;;6.78;2.58;;;;;;;32.50;23.57;100038.34;5050081;28;20531;-84
2022/07/19 10:39:31;;;;;;;2.70;1.60;;;;;;;32.55;22.62;100022.22;5046561;28;20392;-89
2022/07/19 10:42:19;;;;;;;9.20;2.15;;;;;;;32.81;21.33;100028.56;5038477;28;20044;-88
2022/07/19 10:44:56;;;;;;;5.03;2.47;;;;;;;32.92;21.89;100025.66;5050305;28;20051;-89
2022/07/19 10:47:31;;;;;;;6.32;2.38;;;;;;;32.96;21.57;100030.06;5050089;28;20187;-89
2022/07/19 10:50:01;;;;;;;9.13;2.38;;;;;;;33.09;21.87;100021.09;5049275;28;20520;-76
2022/07/19 10:52:27;;;;;;;3.30;1.95;;;;;;;33.15;21.89;100025.13;5048071;28;20078;-76
2022/07/19 10:58:07;;;;;;;7.57;2.50;;;;;;;33.32;21.50;100016.88;5049463;28;20103;-83
2022/07/19 11:00:47;;;;;;;4.78;1.98;;;;;;;33.49;21.18;100020.78;5049657;28;20508;-89
2022/07/19 11:03:22;;;;;;;4.40;1.95;;;;;;;33.54;21.05;100016.72;5049797;28;20392;-88
2022/07/19 11:05:49;;;;;;;5.07;2.33;;;;;;;33.54;20.61;100023.16;5048819;28;20348;-78
2022/07/19 11:08:15;;;;;;;9.32;2.58;;;;;;;33.54;20.82;100013.88;5047806;28;20033;-79
2022/07/19 11:10:40;;;;;;;4.72;2.28;;;;;;;33.58;21.25;100014.66;5047251;28;20044;-79
2022/07/19 11:13:06;;;;;;;7.90;2.50;;;;;;;33.66;21.69;100015.38;5047817;28;20288;-78
2022/07/19 11:15:31;;;;;;;5.82;1.90;;;;;;;33.65;21.50;100017.41;5048178;28;20040;-79
2022/07/19 11:17:59;;;;;;;5.32;1.80;;;;;;;34.12;20.58;100004.00;5048108;28;20049;-78
2022/07/19 11:20:27;;;;;;;5.32;2.00;;;;;;;34.12;20.41;99999.13;5048734;28;20036;-89
2022/07/19 11:22:55;;;;;;;8.52;2.15;;;;;;;34.15;20.43;99997.50;5050659;28;20047;-89
2022/07/19 11:25:25;;;;;;;7.78;2.95;;;;;;;34.16;20.73;99993.44;5052797;28;20098;-84
2022/07/19 11:27:51;;;;;;;6.80;2.50;;;;;;;34.17;20.97;99985.75;5049570;28;20100;-84